Time;durP1;ratioP1;P1;durP2;ratioP2;P2;SDS_P1;SDS_P2;PMS_P1;PMS_P2;Temp;Humidity;BMP_temperature;BMP_pressure;BME280_temperature;BME280_humidity;BME280_pressure;Samples;Min_cycle;Max_cycle;Signal;HPM_P1;HPM_P2
2024/01/14 00:01:20;;;;;;;45.08;34.05;;;2.70;99.90;;;;;;5093101;28;20363;-61
2024/01/14 00:03:45;;;;;;;41.55;31.23;;;2.70;99.90;;;;;;5093434;28;20028;-61
2024/01/14 00:06:11;;;;;;;42.95;31.55;;;2.70;99.90;;;;;;5091540;28;20028;-60
2024/01/14 00:08:37;;;;;;;39.63;29.48;;;2.70;99.90;;;;;;5093170;28;20024;-61
2024/01/14 00:11:03;;;;;;;41.78;31.80;;;2.70;99.90;;;;;;5093359;28;20039;-61
2024/01/14 00:13:29;;;;;;;42.90;32.63;;;2.70;99.90;;;;;;5092712;28;20024;-61
2024/01/14 00:15:54;;;;;;;50.70;39.20;;;2.80;99.90;;;;;;5092924;28;20028;-61
2024/01/14 00:18:20;;;;;;;52.90;42.78;;;2.90;99.90;;;;;;5092802;28;20024;-60
2024/01/14 00:20:45;;;;;;;49.30;38.83;;;3.20;99.90;;;;;;5093181;28;20390;-61
2024/01/14 00:23:11;;;;;;;48.30;36.90;;;3.40;99.90;;;;;;5092699;28;20030;-60
2024/01/14 00:25:37;;;;;;;98.68;51.10;;;3.50;99.90;;;;;;5092534;28;20490;-61
2024/01/14 00:28:03;;;;;;;53.92;35.15;;;3.60;99.90;;;;;;5092460;28;20031;-60
2024/01/14 00:30:29;;;;;;;45.83;30.98;;;3.60;99.90;;;;;;5092491;28;20563;-61
2024/01/14 00:32:55;;;;;;;61.40;35.88;;;3.70;99.90;;;;;;5092031;28;20095;-61
2024/01/14 00:35:20;;;;;;;55.55;34.65;;;3.70;99.90;;;;;;5092614;28;20166;-61
2024/01/14 00:37:47;;;;;;;43.60;29.98;;;3.60;99.90;;;;;;5092345;28;20375;-61
2024/01/14 00:40:13;;;;;;;40.17;29.52;;;3.40;99.90;;;;;;5092744;28;20035;-61
2024/01/14 00:42:39;;;;;;;64.05;41.00;;;3.30;99.90;;;;;;5092190;28;20016;-60
2024/01/14 00:45:05;;;;;;;60.08;39.17;;;3.30;99.90;;;;;;5092240;28;20058;-61
2024/01/14 00:47:31;;;;;;;64.15;42.72;;;3.10;99.90;;;;;;5092159;28;20028;-61
2024/01/14 00:49:57;;;;;;;68.32;43.33;;;3.10;99.90;;;;;;5092858;28;20028;-60
2024/01/14 00:52:24;;;;;;;47.83;32.35;;;3.10;99.90;;;;;;5092196;28;20048;-61
2024/01/14 00:54:50;;;;;;;42.30;31.20;;;3.00;99.90;;;;;;5092232;28;20042;-61
2024/01/14 00:57:16;;;;;;;39.75;29.98;;;3.00;99.90;;;;;;5091898;28;20421;-60
2024/01/14 00:59:41;;;;;;;38.80;28.77;;;3.00;99.90;;;;;;5091165;28;20059;-61
2024/01/14 01:02:07;;;;;;;45.90;33.60;;;2.90;99.90;;;;;;5091789;28;20030;-61
2024/01/14 01:04:33;;;;;;;50.95;36.63;;;2.90;99.90;;;;;;5092200;28;20108;-61
2024/01/14 01:06:59;;;;;;;43.10;31.63;;;2.90;99.90;;;;;;5091933;28;20047;-61
2024/01/14 01:09:24;;;;;;;49.55;34.53;;;2.90;99.90;;;;;;5092040;28;20505;-60
2024/01/14 01:11:50;;;;;;;56.47;38.05;;;2.90;99.90;;;;;;5091788;28;20032;-61
2024/01/14 01:14:15;;;;;;;44.88;32.92;;;2.90;99.90;;;;;;5092502;28;20028;-61
2024/01/14 01:16:41;;;;;;;42.95;32.20;;;2.90;99.90;;;;;;5092063;28;20060;-61
2024/01/14 01:19:07;;;;;;;43.25;31.75;;;2.80;99.90;;;;;;5091876;28;20059;-60
2024/01/14 01:21:33;;;;;;;44.47;32.72;;;2.80;99.90;;;;;;5091812;28;20059;-61
2024/01/14 01:23:58;;;;;;;60.30;43.42;;;2.80;99.90;;;;;;5092400;28;20078;-60
2024/01/14 01:26:24;;;;;;;49.58;35.38;;;2.80;99.90;;;;;;5091509;28;20058;-61
2024/01/14 01:28:50;;;;;;;48.17;33.72;;;2.90;99.90;;;;;;5091880;28;20020;-61
2024/01/14 01:31:16;;;;;;;45.85;33.17;;;2.90;99.90;;;;;;5091882;28;20043;-61
2024/01/14 01:33:41;;;;;;;55.60;39.47;;;2.80;99.90;;;;;;5091914;28;20024;-61
2024/01/14 01:36:07;;;;;;;43.85;32.38;;;2.80;99.90;;;;;;5091686;28;20020;-61
2024/01/14 01:38:33;;;;;;;43.55;33.30;;;2.90;99.90;;;;;;5092327;28;20043;-61
2024/01/14 01:40:59;;;;;;;42.67;31.73;;;2.90;99.90;;;;;;5091505;28;20401;-61
2024/01/14 01:43:24;;;;;;;49.00;33.17;;;2.80;99.90;;;;;;5091832;28;20028;-61
2024/01/14 01:45:53;;;;;;;49.20;33.55;;;2.90;99.90;;;;;;5091528;28;20048;-60
2024/01/14 01:48:21;;;;;;;47.67;34.40;;;2.90;99.90;;;;;;5092146;28;20102;-61
2024/01/14 01:50:47;;;;;;;47.45;33.70;;;2.90;99.90;;;;;;5091638;28;20024;-61
2024/01/14 01:53:14;;;;;;;47.72;33.97;;;2.90;99.90;;;;;;5091557;28;20111;-61
2024/01/14 01:55:39;;;;;;;46.70;34.13;;;2.90;99.90;;;;;;5091741;28;20031;-60
2024/01/14 01:58:05;;;;;;;48.47;34.67;;;2.90;99.90;;;;;;5091619;28;20036;-61
2024/01/14 02:00:34;;;;;;;47.42;34.88;;;2.90;99.90;;;;;;5091610;28;20116;-61
2024/01/14 02:03:01;;;;;;;48.05;34.35;;;2.90;99.90;;;;;;5091968;28;20031;-61
2024/01/14 02:05:31;;;;;;;46.67;34.88;;;3.00;99.90;;;;;;5091243;28;20024;-61
2024/01/14 02:07:58;;;;;;;49.40;35.30;;;3.00;99.90;;;;;;5091604;28;20107;-61
2024/01/14 02:10:25;;;;;;;48.40;35.55;;;3.10;99.90;;;;;;5091313;28;20017;-61
2024/01/14 02:12:51;;;;;;;51.85;34.88;;;3.10;99.90;;;;;;5092955;28;20073;-61
2024/01/14 02:15:17;;;;;;;46.63;34.95;;;3.00;99.90;;;;;;5095145;28;20020;-61
2024/01/14 02:17:42;;;;;;;48.28;34.83;;;3.00;99.90;;;;;;5095056;28;20024;-61
2024/01/14 02:20:08;;;;;;;44.75;32.95;;;3.00;99.90;;;;;;5094936;28;20164;-60
2024/01/14 02:22:39;;;;;;;46.75;34.30;;;3.00;99.90;;;;;;5095462;28;20107;-61
2024/01/14 02:25:05;;;;;;;46.88;34.63;;;3.00;99.90;;;;;;5094515;28;20048;-61
2024/01/14 02:27:32;;;;;;;48.72;34.67;;;2.90;99.90;;;;;;5094766;28;20058;-61
2024/01/14 02:29:59;;;;;;;44.72;33.08;;;2.90;99.90;;;;;;5095318;28;20047;-61
2024/01/14 02:32:25;;;;;;;46.05;34.92;;;2.90;99.90;;;;;;5094988;28;20020;-61
2024/01/14 02:34:51;;;;;;;49.60;36.45;;;2.90;99.90;;;;;;5094724;28;20021;-61
2024/01/14 02:37:17;;;;;;;52.03;39.22;;;2.90;99.90;;;;;;5095200;28;20351;-61
2024/01/14 02:39:43;;;;;;;55.28;40.33;;;2.80;99.90;;;;;;5094401;28;20221;-61
2024/01/14 02:42:09;;;;;;;53.95;39.78;;;2.80;99.90;;;;;;5094571;28;20028;-61
2024/01/14 02:44:35;;;;;;;51.38;37.72;;;2.90;99.90;;;;;;5094662;28;20032;-61
2024/01/14 02:47:00;;;;;;;49.05;35.92;;;3.30;99.90;;;;;;5094508;28;20123;-61
2024/01/14 02:49:26;;;;;;;44.90;33.10;;;3.30;99.90;;;;;;5094684;28;20024;-61
2024/01/14 02:51:52;;;;;;;44.58;34.20;;;3.40;99.90;;;;;;5094455;28;20386;-61
2024/01/14 02:54:17;;;;;;;46.17;34.17;;;3.60;99.90;;;;;;5093928;28;20017;-61
2024/01/14 02:56:43;;;;;;;46.28;35.05;;;3.60;99.90;;;;;;5094728;28;20028;-61
2024/01/14 02:59:09;;;;;;;46.75;34.03;;;3.70;99.90;;;;;;5094372;28;20036;-61
2024/01/14 03:01:43;;;;;;;47.55;35.00;;;3.80;99.90;;;;;;5094352;28;20028;-61
2024/01/14 03:04:08;;;;;;;53.38;37.47;;;3.60;99.90;;;;;;5094179;28;20052;-61
2024/01/14 03:06:34;;;;;;;58.90;43.10;;;3.40;99.90;;;;;;5094565;28;20051;-61
2024/01/14 03:09:00;;;;;;;48.08;36.10;;;3.30;99.90;;;;;;5093796;28;20032;-61
2024/01/14 03:11:25;;;;;;;43.00;33.58;;;3.20;99.90;;;;;;5094138;28;20044;-61
2024/01/14 03:13:51;;;;;;;43.20;33.05;;;3.20;99.90;;;;;;5094164;28;20569;-61
2024/01/14 03:16:18;;;;;;;47.55;34.67;;;3.20;99.90;;;;;;5093997;28;20032;-61
2024/01/14 03:18:44;;;;;;;51.20;37.05;;;3.20;99.90;;;;;;5093823;28;20089;-61
2024/01/14 03:21:17;;;;;;;51.80;39.63;;;3.10;99.90;;;;;;5093970;28;20024;-61
2024/01/14 03:23:43;;;;;;;50.05;36.00;;;3.10;99.90;;;;;;5093032;28;20040;-61
2024/01/14 03:26:08;;;;;;;48.58;34.58;;;3.10;99.90;;;;;;5092516;28;20028;-61
2024/01/14 03:28:34;;;;;;;48.60;36.67;;;3.10;99.90;;;;;;5094279;28;20024;-61
2024/01/14 03:31:00;;;;;;;51.97;38.13;;;3.00;99.90;;;;;;5093741;28;20039;-61
2024/01/14 03:33:26;;;;;;;50.17;36.22;;;3.10;99.90;;;;;;5093648;28;20023;-61
2024/01/14 03:35:52;;;;;;;49.80;35.83;;;3.00;99.90;;;;;;5093939;28;20020;-61
2024/01/14 03:38:17;;;;;;;52.83;35.53;;;3.00;99.90;;;;;;5092134;28;20524;-61
2024/01/14 03:40:43;;;;;;;51.00;36.50;;;3.10;99.90;;;;;;5093427;28;20027;-61
2024/01/14 03:43:08;;;;;;;51.55;36.60;;;3.00;99.90;;;;;;5093424;28;20024;-61
2024/01/14 03:45:34;;;;;;;50.67;36.17;;;3.10;99.90;;;;;;5093007;28;20167;-60
2024/01/14 03:48:00;;;;;;;47.05;35.10;;;3.00;99.90;;;;;;5093804;28;20110;-61
2024/01/14 03:50:25;;;;;;;46.45;34.50;;;3.00;99.90;;;;;;5093411;28;20024;-61
2024/01/14 03:52:51;;;;;;;49.88;36.58;;;3.00;99.90;;;;;;5092490;28;20115;-61
2024/01/14 03:55:16;;;;;;;48.10;35.33;;;3.00;99.90;;;;;;5093057;28;20026;-61
2024/01/14 03:57:42;;;;;;;48.20;34.30;;;3.00;99.90;;;;;;5093226;28;20110;-61
2024/01/14 04:00:09;;;;;;;45.83;33.67;;;3.00;99.90;;;;;;5093479;28;20110;-61
2024/01/14 04:02:34;;;;;;;48.63;35.28;;;3.10;99.90;;;;;;5093093;28;20020;-61
2024/01/14 04:05:00;;;;;;;51.22;36.55;;;3.10;99.90;;;;;;5093060;28;20036;-61
2024/01/14 04:07:26;;;;;;;49.28;35.85;;;3.00;99.90;;;;;;5092787;28;20070;-61
2024/01/14 04:09:51;;;;;;;50.10;36.35;;;3.10;99.90;;;;;;5093299;28;20028;-61
2024/01/14 04:12:17;;;;;;;60.38;41.67;;;3.00;99.90;;;;;;5093136;28;20024;-61
2024/01/14 04:14:44;;;;;;;58.17;40.33;;;3.00;99.90;;;;;;5093342;28;20070;-61
2024/01/14 04:17:10;;;;;;;48.03;36.38;;;3.00;99.90;;;;;;5092824;28;20466;-61
2024/01/14 04:19:36;;;;;;;46.25;34.75;;;3.10;99.90;;;;;;5092770;28;20040;-61
2024/01/14 04:22:03;;;;;;;45.78;35.05;;;3.10;99.90;;;;;;5092438;28;20020;-61
2024/01/14 04:24:29;;;;;;;45.55;34.05;;;3.10;99.90;;;;;;5092841;28;20398;-61
2024/01/14 04:26:55;;;;;;;46.03;33.58;;;3.00;99.90;;;;;;5092574;28;20038;-61
2024/01/14 04:29:21;;;;;;;49.45;34.55;;;3.00;99.90;;;;;;5092668;28;20024;-61
2024/01/14 04:31:46;;;;;;;44.45;33.50;;;2.90;99.90;;;;;;5092326;28;20028;-61
2024/01/14 04:34:12;;;;;;;43.58;32.70;;;2.90;99.90;;;;;;5091346;28;20055;-61
2024/01/14 04:36:38;;;;;;;46.53;33.08;;;2.90;99.90;;;;;;5092581;28;20024;-60
2024/01/14 04:39:04;;;;;;;46.03;33.58;;;2.80;99.90;;;;;;5092362;28;20735;-61
2024/01/14 04:41:29;;;;;;;42.30;32.42;;;2.80;99.90;;;;;;5092322;28;20146;-61
2024/01/14 04:43:55;;;;;;;44.00;32.67;;;2.90;99.90;;;;;;5092410;28;20127;-61
2024/01/14 04:46:21;;;;;;;45.75;34.40;;;2.90;99.90;;;;;;5092110;28;20133;-61
2024/01/14 04:48:46;;;;;;;46.15;33.03;;;2.90;99.90;;;;;;5092406;28;20035;-61
2024/01/14 04:51:12;;;;;;;42.28;32.78;;;2.90;99.90;;;;;;5091917;28;20027;-62
2024/01/14 04:53:38;;;;;;;45.38;32.45;;;2.80;99.90;;;;;;5092714;28;20032;-62
2024/01/14 04:56:08;;;;;;;46.13;32.92;;;2.80;99.90;;;;;;5092142;28;20032;-61
2024/01/14 04:58:34;;;;;;;42.70;31.73;;;2.90;99.90;;;;;;5092191;28;20119;-61
2024/01/14 05:01:00;;;;;;;42.72;31.92;;;2.80;99.90;;;;;;5092161;28;20498;-61
2024/01/14 05:03:25;;;;;;;44.85;32.63;;;2.80;99.90;;;;;;5091978;28;20032;-61
2024/01/14 05:05:51;;;;;;;47.40;32.15;;;2.80;99.90;;;;;;5092205;28;20048;-61
2024/01/14 05:08:17;;;;;;;45.97;33.92;;;2.80;99.90;;;;;;5092127;28;20103;-62
2024/01/14 05:10:43;;;;;;;40.70;30.98;;;3.00;99.90;;;;;;5092108;28;20016;-60
2024/01/14 05:13:08;;;;;;;41.75;33.15;;;3.20;99.90;;;;;;5092439;28;20028;-61
2024/01/14 05:15:34;;;;;;;44.10;32.95;;;3.40;99.90;;;;;;5091912;28;20156;-60
2024/01/14 05:17:59;;;;;;;40.03;31.88;;;3.40;99.90;;;;;;5091625;28;20482;-61
2024/01/14 05:20:25;;;;;;;40.75;30.60;;;3.50;99.90;;;;;;5091953;28;20016;-60
2024/01/14 05:22:51;;;;;;;39.40;30.27;;;3.50;99.90;;;;;;5092377;28;20074;-60
2024/01/14 05:25:17;;;;;;;40.95;29.38;;;3.70;99.90;;;;;;5092032;28;20016;-61
2024/01/14 05:27:42;;;;;;;37.25;28.48;;;3.60;99.90;;;;;;5091507;28;20031;-60
2024/01/14 05:30:08;;;;;;;35.75;27.08;;;3.30;99.90;;;;;;5092080;28;20028;-60
2024/01/14 05:32:34;;;;;;;38.17;29.45;;;3.30;99.90;;;;;;5091661;28;20436;-61
2024/01/14 05:34:59;;;;;;;33.88;27.33;;;3.20;99.90;;;;;;5091809;28;20028;-62
2024/01/14 05:37:25;;;;;;;39.15;29.67;;;3.00;99.90;;;;;;5091798;28;20069;-61
2024/01/14 05:39:51;;;;;;;37.88;29.23;;;2.90;99.90;;;;;;5092313;28;20125;-61
2024/01/14 05:42:16;;;;;;;37.17;29.40;;;2.80;99.90;;;;;;5091578;28;20024;-62
2024/01/14 05:44:42;;;;;;;41.03;29.52;;;2.80;99.90;;;;;;5091841;28;20024;-61
2024/01/14 05:47:08;;;;;;;39.13;28.58;;;2.80;99.90;;;;;;5091707;28;20044;-61
2024/01/14 05:49:34;;;;;;;37.17;28.77;;;2.80;99.90;;;;;;5095689;28;20036;-62
2024/01/14 05:52:00;;;;;;;37.97;28.58;;;2.80;99.90;;;;;;5096004;28;20040;-61
2024/01/14 05:54:26;;;;;;;36.95;27.88;;;2.80;99.90;;;;;;5095481;28;20027;-61
2024/01/14 05:56:51;;;;;;;37.83;28.27;;;2.80;99.90;;;;;;5095891;28;20028;-61
2024/01/14 05:59:17;;;;;;;35.10;27.55;;;2.80;99.90;;;;;;5095511;28;20494;-61
2024/01/14 06:01:43;;;;;;;36.83;28.77;;;2.80;99.90;;;;;;5095223;28;20024;-61
2024/01/14 06:04:08;;;;;;;37.33;27.75;;;2.80;99.90;;;;;;5095699;28;20073;-62
2024/01/14 06:06:34;;;;;;;35.63;28.38;;;2.80;99.90;;;;;;5095042;28;20086;-62
2024/01/14 06:09:00;;;;;;;36.88;28.38;;;2.80;99.90;;;;;;5094084;28;20031;-62
2024/01/14 06:11:25;;;;;;;38.00;28.77;;;2.80;99.90;;;;;;5095599;28;20028;-62
2024/01/14 06:13:51;;;;;;;45.30;31.38;;;2.80;99.90;;;;;;5095385;28;20020;-61
2024/01/14 06:16:17;;;;;;;48.10;35.40;;;2.80;99.90;;;;;;5094851;28;20074;-62
2024/01/14 06:18:42;;;;;;;92.38;64.88;;;2.80;99.90;;;;;;5095249;28;20088;-62
2024/01/14 06:21:08;;;;;;;79.32;54.10;;;2.80;99.90;;;;;;5095133;28;20119;-62
2024/01/14 06:23:35;;;;;;;61.30;44.35;;;2.80;99.90;;;;;;5095026;28;20031;-62
2024/01/14 06:26:01;;;;;;;57.13;37.70;;;2.90;99.90;;;;;;5094825;28;20027;-62
2024/01/14 06:28:27;;;;;;;52.03;36.60;;;2.90;99.90;;;;;;5095078;28;20397;-62
2024/01/14 06:30:52;;;;;;;60.10;41.03;;;2.90;99.90;;;;;;5094392;28;20035;-61
2024/01/14 06:33:18;;;;;;;96.65;59.60;;;2.90;99.90;;;;;;5094909;28;20070;-62
2024/01/14 06:35:44;;;;;;;89.57;57.17;;;2.90;99.90;;;;;;5094835;28;20486;-62
2024/01/14 06:38:09;;;;;;;74.95;51.22;;;2.90;99.90;;;;;;5095017;28;20490;-62
2024/01/14 06:40:36;;;;;;;48.03;35.03;;;2.90;99.90;;;;;;5094628;28;20035;-61
2024/01/14 06:43:01;;;;;;;50.63;37.33;;;2.90;99.90;;;;;;5094588;28;20103;-62
2024/01/14 06:45:27;;;;;;;81.65;55.45;;;2.90;99.90;;;;;;5094406;28;20582;-61
2024/01/14 06:47:53;;;;;;;66.65;45.08;;;2.90;99.90;;;;;;5094670;28;20490;-62
2024/01/14 06:50:18;;;;;;;43.30;33.55;;;2.90;99.90;;;;;;5094618;28;20028;-62
2024/01/14 06:52:44;;;;;;;51.95;36.70;;;2.80;99.90;;;;;;5094468;28;20474;-61
2024/01/14 06:55:13;;;;;;;65.40;47.35;;;2.80;99.90;;;;;;5094530;28;20035;-62
2024/01/14 06:57:39;;;;;;;71.60;48.33;;;2.70;99.90;;;;;;5094316;28;20057;-62
2024/01/14 07:00:07;;;;;;;61.67;43.10;;;2.70;99.90;;;;;;5092775;28;20081;-61
2024/01/14 07:02:33;;;;;;;62.67;45.78;;;2.70;99.90;;;;;;5094435;28;20533;-61
2024/01/14 07:04:59;;;;;;;47.20;36.55;;;2.70;99.90;;;;;;5094252;28;20448;-61
2024/01/14 07:07:25;;;;;;;52.80;38.95;;;2.70;99.90;;;;;;5094216;28;20028;-61
2024/01/14 07:09:50;;;;;;;64.38;47.47;;;2.70;99.90;;;;;;5094485;28;20020;-61
2024/01/14 07:12:16;;;;;;;58.97;44.10;;;2.70;99.90;;;;;;5094118;28;20028;-62
2024/01/14 07:14:42;;;;;;;66.15;47.55;;;2.70;99.90;;;;;;5093801;28;20047;-61
2024/01/14 07:17:07;;;;;;;77.05;56.80;;;2.70;99.90;;;;;;5093919;28;20020;-61
2024/01/14 07:19:35;;;;;;;49.95;37.60;;;2.60;99.90;;;;;;5094183;28;20031;-61
2024/01/14 07:22:01;;;;;;;45.53;34.92;;;2.60;99.90;;;;;;5093928;28;20016;-61
2024/01/14 07:24:26;;;;;;;42.20;32.50;;;2.60;99.90;;;;;;5093844;28;20020;-61
2024/01/14 07:26:52;;;;;;;42.38;32.55;;;2.50;99.90;;;;;;5093980;28;20095;-61
2024/01/14 07:29:18;;;;;;;42.78;30.85;;;2.50;99.90;;;;;;5093542;28;20050;-61
2024/01/14 07:31:43;;;;;;;40.42;30.10;;;2.50;99.90;;;;;;5093794;28;20465;-61
2024/01/14 07:34:09;;;;;;;39.85;30.73;;;2.70;99.90;;;;;;5092859;28;20028;-61
2024/01/14 07:36:34;;;;;;;38.38;29.27;;;2.90;99.90;;;;;;5093666;28;20027;-61
2024/01/14 07:39:00;;;;;;;41.45;30.20;;;3.20;99.90;;;;;;5092248;28;20028;-61
2024/01/14 07:41:26;;;;;;;44.75;34.42;;;3.40;99.90;;;;;;5093416;28;20522;-61
2024/01/14 07:43:52;;;;;;;37.78;28.73;;;3.50;99.90;;;;;;5093608;28;20437;-62
2024/01/14 07:46:18;;;;;;;38.83;27.50;;;3.40;99.90;;;;;;5093233;28;20410;-61
2024/01/14 07:48:44;;;;;;;37.58;27.67;;;3.40;99.90;;;;;;5093412;28;20032;-61
2024/01/14 07:51:09;;;;;;;37.13;28.65;;;3.30;99.90;;;;;;5093487;28;20081;-61
2024/01/14 07:53:36;;;;;;;34.85;27.73;;;3.20;99.90;;;;;;5093147;28;20482;-61
2024/01/14 07:56:02;;;;;;;37.88;29.00;;;3.10;99.90;;;;;;5093569;28;20028;-62
2024/01/14 07:58:28;;;;;;;40.10;31.55;;;3.00;99.90;;;;;;5092887;28;20570;-61
2024/01/14 08:00:54;;;;;;;36.92;28.88;;;2.80;99.90;;;;;;5093162;28;20398;-61
2024/01/14 08:03:20;;;;;;;37.45;28.63;;;2.70;99.90;;;;;;5093076;28;20436;-61
2024/01/14 08:05:46;;;;;;;33.20;26.88;;;2.70;99.90;;;;;;5093426;28;20028;-61
2024/01/14 08:08:12;;;;;;;32.55;26.02;;;2.60;99.90;;;;;;5092886;28;20494;-61
2024/01/14 08:10:38;;;;;;;32.35;25.15;;;2.60;99.90;;;;;;5092902;28;20036;-61
2024/01/14 08:13:04;;;;;;;33.33;25.85;;;2.50;99.90;;;;;;5092558;28;20025;-61
2024/01/14 08:15:30;;;;;;;31.45;25.70;;;2.50;99.90;;;;;;5093038;28;20105;-61
2024/01/14 08:17:56;;;;;;;33.13;25.48;;;2.50;99.90;;;;;;5093123;28;20054;-61
2024/01/14 08:20:21;;;;;;;32.13;25.40;;;2.50;99.90;;;;;;5092776;28;20080;-61
2024/01/14 08:22:47;;;;;;;38.08;25.90;;;2.60;99.90;;;;;;5092781;28;20097;-61
2024/01/14 08:25:13;;;;;;;35.05;25.27;;;2.60;99.90;;;;;;5092802;28;20186;-61
2024/01/14 08:27:39;;;;;;;32.30;25.73;;;2.70;99.90;;;;;;5092370;28;20429;-60
2024/01/14 08:30:07;;;;;;;35.67;27.70;;;2.70;99.90;;;;;;5092959;28;20024;-61
2024/01/14 08:32:33;;;;;;;41.10;30.10;;;2.80;99.90;;;;;;5092392;28;20024;-61
2024/01/14 08:34:58;;;;;;;37.45;28.60;;;2.80;99.90;;;;;;5092625;28;20390;-61
2024/01/14 08:37:27;;;;;;;37.30;29.15;;;2.90;99.90;;;;;;5092744;28;20023;-61
2024/01/14 08:39:53;;;;;;;36.80;27.70;;;2.90;99.90;;;;;;5091431;28;20032;-60
2024/01/14 08:42:19;;;;;;;36.42;28.30;;;3.00;99.90;;;;;;5092053;28;20580;-61
2024/01/14 08:44:44;;;;;;;36.38;28.45;;;2.90;99.90;;;;;;5092586;28;20040;-61
2024/01/14 08:47:10;;;;;;;40.47;29.92;;;2.90;99.90;;;;;;5092261;28;20083;-61
2024/01/14 08:49:36;;;;;;;44.10;33.97;;;2.90;99.90;;;;;;5092319;28;20035;-61
2024/01/14 08:52:01;;;;;;;42.00;32.65;;;3.00;99.90;;;;;;5092214;28;20474;-61
2024/01/14 08:54:31;;;;;;;40.28;31.38;;;3.10;99.90;;;;;;5092312;28;20036;-60
2024/01/14 08:56:57;;;;;;;44.92;32.13;;;3.10;99.90;;;;;;5092144;28;20016;-61
2024/01/14 08:59:22;;;;;;;38.95;29.48;;;3.20;99.90;;;;;;5092097;28;20113;-61
2024/01/14 09:01:48;;;;;;;37.38;28.95;;;3.20;99.90;;;;;;5092331;28;20028;-61
2024/01/14 09:04:14;;;;;;;36.95;27.60;;;3.30;99.90;;;;;;5092118;28;20043;-61
2024/01/14 09:06:40;;;;;;;34.97;26.58;;;3.30;99.90;;;;;;5092024;28;20518;-61
2024/01/14 09:09:09;;;;;;;35.53;28.00;;;3.30;99.90;;;;;;5091975;28;20032;-61
2024/01/14 09:11:35;;;;;;;34.47;27.58;;;3.30;99.90;;;;;;5091797;28;20044;-61
2024/01/14 09:14:00;;;;;;;36.78;28.30;;;3.40;99.90;;;;;;5092460;28;20056;-61
2024/01/14 09:16:26;;;;;;;35.72;27.70;;;3.40;99.90;;;;;;5092000;28;20111;-61
2024/01/14 09:18:52;;;;;;;34.30;27.85;;;3.50;99.90;;;;;;5090741;28;20557;-61
2024/01/14 09:21:17;;;;;;;33.47;26.73;;;3.60;99.90;;;;;;5092033;28;20022;-61
2024/01/14 09:23:43;;;;;;;36.05;26.45;;;3.60;99.90;;;;;;5095286;28;20032;-61
2024/01/14 09:26:09;;;;;;;32.38;26.67;;;3.60;99.90;;;;;;5095976;28;20031;-61
2024/01/14 09:28:36;;;;;;;33.40;26.55;;;3.70;99.90;;;;;;5096060;28;20032;-61
2024/01/14 09:31:05;;;;;;;36.08;27.67;;;3.70;99.90;;;;;;5096284;28;20028;-61
2024/01/14 09:33:31;;;;;;;33.55;26.77;;;3.80;99.90;;;;;;5095981;28;20028;-62
2024/01/14 09:36:05;;;;;;;36.55;27.77;;;3.90;99.90;;;;;;5096024;28;20133;-61
2024/01/14 09:38:31;;;;;;;36.88;29.80;;;3.90;99.90;;;;;;5095897;28;20482;-61
2024/01/14 09:41:05;;;;;;;41.35;31.40;;;4.00;99.90;;;;;;5095337;28;20018;-61
2024/01/14 09:43:37;;;;;;;40.17;31.40;;;4.10;99.90;;;;;;5095691;28;20059;-61
2024/01/14 09:46:03;;;;;;;35.38;29.23;;;4.20;99.90;;;;;;5095963;28;20474;-60
2024/01/14 09:48:29;;;;;;;35.35;29.73;;;4.20;99.90;;;;;;5095781;28;20028;-61
2024/01/14 09:50:57;;;;;;;35.97;29.67;;;4.20;99.90;;;;;;5095660;28;20099;-62
2024/01/14 09:53:23;;;;;;;37.65;30.08;;;4.40;99.90;;;;;;5095786;28;20386;-61
2024/01/14 09:55:51;;;;;;;39.75;32.53;;;4.40;99.90;;;;;;5095520;28;20028;-62
2024/01/14 09:58:17;;;;;;;45.10;34.95;;;4.50;99.90;;;;;;5095413;28;20111;-62
2024/01/14 10:00:44;;;;;;;42.38;32.95;;;4.60;99.90;;;;;;5095592;28;20460;-61
2024/01/14 10:03:10;;;;;;;43.60;33.80;;;4.90;99.90;;;;;;5095570;28;20047;-61
2024/01/14 10:05:37;;;;;;;52.53;39.90;;;5.10;99.90;;;;;;5095518;28;20473;-61
2024/01/14 10:08:03;;;;;;;52.97;40.30;;;5.20;99.90;;;;;;5093826;28;20031;-62
2024/01/14 10:10:31;;;;;;;45.55;35.13;;;5.30;99.90;;;;;;5095410;28;20031;-61
2024/01/14 10:12:57;;;;;;;45.20;35.40;;;5.50;99.90;;;;;;5095500;28;20384;-62
2024/01/14 10:15:22;;;;;;;42.00;33.92;;;5.50;99.90;;;;;;5095083;28;20031;-62
2024/01/14 10:17:48;;;;;;;39.65;32.95;;;5.50;99.90;;;;;;5095081;28;20031;-61
2024/01/14 10:20:14;;;;;;;39.60;33.95;;;5.50;99.90;;;;;;5094986;28;20093;-61
2024/01/14 10:22:42;;;;;;;43.47;36.08;;;5.50;99.90;;;;;;5095014;28;20436;-62
2024/01/14 10:25:08;;;;;;;41.75;36.45;;;5.40;99.90;;;;;;5095553;28;20028;-61
2024/01/14 10:27:33;;;;;;;44.47;36.30;;;5.40;99.90;;;;;;5094966;28;20444;-62
2024/01/14 10:29:59;;;;;;;41.92;37.53;;;5.40;99.90;;;;;;5094993;28;20474;-62
2024/01/14 10:32:25;;;;;;;45.53;37.88;;;5.40;99.90;;;;;;5095026;28;20020;-61
2024/01/14 10:34:52;;;;;;;42.67;37.92;;;5.50;99.90;;;;;;5094938;28;20028;-61
2024/01/14 10:37:22;;;;;;;42.17;37.67;;;5.50;99.90;;;;;;5094485;28;20437;-61
2024/01/14 10:39:48;;;;;;;42.25;37.75;;;5.60;99.90;;;;;;5094828;28;20043;-61
2024/01/14 10:42:14;;;;;;;40.75;36.00;;;5.60;99.90;;;;;;5094870;28;20042;-62
2024/01/14 10:44:39;;;;;;;44.13;39.42;;;5.70;99.90;;;;;;5094568;28;20046;-61
2024/01/14 10:47:09;;;;;;;39.97;35.85;;;5.70;99.90;;;;;;5094308;28;20074;-62
2024/01/14 10:49:37;;;;;;;43.08;37.95;;;5.80;99.90;;;;;;5094576;28;20020;-61
2024/01/14 10:52:10;;;;;;;42.45;37.85;;;5.80;99.90;;;;;;5093016;28;20382;-62
2024/01/14 10:54:51;;;;;;;46.95;39.97;;;5.90;99.90;;;;;;5094757;28;20024;-62
2024/01/14 10:57:35;;;;;;;43.80;39.00;;;6.00;99.90;;;;;;5094308;28;20024;-60
2024/01/14 11:00:09;;;;;;;45.38;38.42;;;6.00;99.90;;;;;;5094424;28;20478;-60
2024/01/14 11:02:36;;;;;;;44.10;38.92;;;6.10;99.90;;;;;;5094335;28;20020;-60
2024/01/14 11:05:08;;;;;;;44.22;39.17;;;6.10;99.90;;;;;;5091913;28;20090;-61
2024/01/14 11:07:35;;;;;;;45.08;40.15;;;6.10;99.90;;;;;;5093778;28;20432;-60
2024/01/14 11:10:02;;;;;;;44.33;39.58;;;6.20;99.90;;;;;;5094284;28;20032;-61
2024/01/14 11:12:55;;;;;;;46.42;40.38;;;6.20;99.90;;;;;;5094202;28;20024;-60
2024/01/14 11:15:29;;;;;;;45.53;40.05;;;6.30;99.90;;;;;;5094453;28;20047;-61
2024/01/14 11:18:04;;;;;;;48.47;43.10;;;6.40;99.90;;;;;;5094024;28;20035;-61
2024/01/14 11:20:34;;;;;;;46.40;40.35;;;6.50;99.90;;;;;;5093856;28;20437;-62
2024/01/14 11:23:00;;;;;;;45.92;40.67;;;6.60;99.90;;;;;;5094086;28;20051;-62
2024/01/14 11:25:33;;;;;;;46.63;41.40;;;6.60;99.90;;;;;;5093943;28;20066;-62
2024/01/14 11:28:02;;;;;;;46.85;41.85;;;6.70;99.90;;;;;;5093995;28;20043;-62
2024/01/14 11:30:46;;;;;;;48.20;42.78;;;6.70;99.90;;;;;;5093651;28;20518;-63
2024/01/14 11:33:32;;;;;;;50.42;45.08;;;6.80;99.90;;;;;;5093749;28;20110;-62
2024/01/14 11:36:00;;;;;;;50.38;44.92;;;6.80;99.90;;;;;;5093730;28;20028;-62
2024/01/14 11:38:34;;;;;;;48.92;43.83;;;6.90;99.90;;;;;;5093650;28;20111;-62
2024/01/14 11:41:28;;;;;;;50.17;44.83;;;6.90;99.90;;;;;;5093609;28;20103;-62
2024/01/14 11:44:04;;;;;;;48.78;43.55;;;6.90;99.90;;;;;;5093544;28;20057;-62
2024/01/14 11:46:42;;;;;;;48.05;42.95;;;6.90;99.90;;;;;;5092609;28;20414;-62
2024/01/14 11:49:10;;;;;;;46.72;41.78;;;6.90;99.90;;;;;;5093595;28;20016;-62
2024/01/14 11:51:43;;;;;;;45.47;40.75;;;7.00;99.90;;;;;;5093470;28;20036;-62
2024/01/14 11:54:10;;;;;;;44.83;40.30;;;7.00;99.90;;;;;;5093372;28;20023;-62
2024/01/14 11:56:36;;;;;;;44.17;39.67;;;7.10;99.90;;;;;;5093715;28;20036;-61
2024/01/14 11:59:13;;;;;;;45.00;40.35;;;7.10;99.90;;;;;;5093266;28;20069;-62
2024/01/14 12:01:39;;;;;;;44.22;39.72;;;7.10;99.90;;;;;;5093089;28;20032;-62
2024/01/14 12:04:09;;;;;;;42.53;38.33;;;7.20;99.90;;;;;;5092881;28;20390;-62
2024/01/14 12:06:39;;;;;;;42.55;38.35;;;7.20;99.90;;;;;;5093571;28;20546;-62
2024/01/14 12:09:07;;;;;;;40.67;36.47;;;7.30;99.90;;;;;;5093059;28;20505;-62
2024/01/14 12:11:33;;;;;;;41.22;37.05;;;7.60;99.90;;;;;;5093196;28;20028;-62
2024/01/14 12:13:59;;;;;;;41.90;37.70;;;7.80;99.90;;;;;;5093281;28;20051;-61
2024/01/14 12:16:25;;;;;;;41.95;37.63;;;7.90;99.90;;;;;;5093001;28;20059;-62
2024/01/14 12:18:50;;;;;;;42.85;38.55;;;8.00;99.90;;;;;;5092649;28;20032;-61
2024/01/14 12:21:17;;;;;;;42.30;38.00;;;8.10;99.90;;;;;;5092879;28;20089;-62
2024/01/14 12:23:44;;;;;;;42.22;38.03;;;8.10;99.90;;;;;;5093360;28;20023;-62
2024/01/14 12:26:10;;;;;;;41.25;37.15;;;8.30;99.90;;;;;;5092672;28;20448;-62
2024/01/14 12:28:36;;;;;;;39.13;35.33;;;8.40;99.90;;;;;;5092728;28;20111;-62
2024/01/14 12:31:04;;;;;;;39.13;35.22;;;8.40;99.90;;;;;;5092757;28;20446;-62
2024/01/14 12:33:30;;;;;;;41.30;37.03;;;8.40;99.90;;;;;;5092460;28;20027;-63